Time;durP1;ratioP1;P1;durP2;ratioP2;P2;SDS_P1;SDS_P2;PMS_P1;PMS_P2;Temp;Humidity;BMP_temperature;BMP_pressure;BME280_temperature;BME280_humidity;BME280_pressure;Samples;Min_cycle;Max_cycle;Signal;HPM_P1;HPM_P2
2022/06/06 00:00:16;;;;;;;27.60;20.60;;;16.20;99.90;;;;;;5075187;28;20577;-87
2022/06/06 00:02:51;;;;;;;28.37;21.40;;;16.30;99.90;;;;;;5073128;28;20160;-86
2022/06/06 00:05:31;;;;;;;28.17;21.10;;;16.40;99.90;;;;;;5074149;28;20180;-87
2022/06/06 00:08:07;;;;;;;32.50;23.63;;;16.30;99.90;;;;;;5074268;28;20205;-86
2022/06/06 00:10:39;;;;;;;30.53;23.67;;;16.30;99.90;;;;;;5072382;28;20239;-86
2022/06/06 00:15:57;;;;;;;33.63;24.47;;;16.40;99.90;;;;;;5075145;28;20172;-88
2022/06/06 00:18:27;;;;;;;33.00;24.53;;;16.40;99.90;;;;;;5075820;28;20184;-88
2022/06/06 00:20:55;;;;;;;30.57;23.57;;;16.30;99.90;;;;;;5075383;28;20173;-86
2022/06/06 00:23:22;;;;;;;34.00;24.90;;;16.40;99.90;;;;;;5059110;28;20204;-86
2022/06/06 00:25:51;;;;;;;31.57;24.23;;;16.20;99.90;;;;;;5076577;28;20207;-86
2022/06/06 00:28:17;;;;;;;35.60;25.77;;;16.40;99.90;;;;;;5071570;28;20225;-86
2022/06/06 00:30:48;;;;;;;33.07;24.67;;;16.30;99.90;;;;;;5074149;28;20200;-87
2022/06/06 00:36:02;;;;;;;31.57;23.47;;;16.30;99.90;;;;;;5077148;28;20160;-87
2022/06/06 00:38:29;;;;;;;34.70;24.63;;;16.30;99.90;;;;;;5078264;28;20200;-85
2022/06/06 00:41:04;;;;;;;34.50;25.20;;;16.30;99.90;;;;;;5076364;28;20177;-85
2022/06/06 00:43:34;;;;;;;30.80;24.07;;;16.30;99.90;;;;;;5064211;28;20199;-85
2022/06/06 00:46:26;;;;;;;35.87;24.27;;;16.30;99.90;;;;;;5077548;28;20181;-85
2022/06/06 00:49:03;;;;;;;32.80;23.73;;;16.20;99.90;;;;;;5078188;28;20181;-85
2022/06/06 00:51:35;;;;;;;32.53;24.70;;;16.30;99.90;;;;;;5078219;28;20180;-86
2022/06/06 00:54:06;;;;;;;30.63;23.43;;;16.20;99.90;;;;;;5077448;28;20165;-87
2022/06/06 00:56:46;;;;;;;31.47;23.23;;;16.10;99.90;;;;;;5077983;28;20157;-88
2022/06/06 00:59:27;;;;;;;31.67;23.20;;;16.10;99.90;;;;;;5060147;28;20160;-87
2022/06/06 01:01:57;;;;;;;30.67;20.90;;;16.00;99.90;;;;;;5073655;28;20188;-86
2022/06/06 01:04:33;;;;;;;28.37;21.27;;;16.00;99.90;;;;;;5087154;28;20260;-88
2022/06/06 01:06:59;;;;;;;28.17;21.13;;;16.10;99.90;;;;;;5072926;28;20215;-86
2022/06/06 01:09:26;;;;;;;29.13;22.00;;;16.00;99.90;;;;;;5073793;28;20192;-86
2022/06/06 01:11:59;;;;;;;27.23;20.30;;;16.00;99.90;;;;;;5055770;28;20181;-86
2022/06/06 01:14:45;;;;;;;25.43;19.67;;;15.90;99.90;;;;;;5073061;28;20199;-86
2022/06/06 01:18:33;;;;;;;27.90;21.13;;;15.80;99.90;;;;;;5072944;28;20192;-86
2022/06/06 01:21:51;;;;;;;29.00;22.30;;;15.90;99.90;;;;;;5073652;28;20215;-87
2022/06/06 01:25:41;;;;;;;33.67;23.37;;;16.00;99.90;;;;;;5058937;28;20219;-87
2022/06/06 01:29:07;;;;;;;31.33;22.50;;;15.90;99.90;;;;;;5026568;28;20224;-86
2022/06/06 01:32:03;;;;;;;29.20;21.37;;;15.80;99.90;;;;;;5061361;28;20191;-86
2022/06/06 01:34:34;;;;;;;29.03;22.30;;;15.70;99.90;;;;;;5060699;28;20172;-85
2022/06/06 01:37:02;;;;;;;32.63;22.73;;;15.80;99.90;;;;;;5057715;28;20645;-86
2022/06/06 01:39:32;;;;;;;28.43;21.93;;;15.70;99.90;;;;;;5059905;28;20275;-87
2022/06/06 01:42:34;;;;;;;29.03;21.80;;;15.70;99.90;;;;;;5059960;28;20216;-87
2022/06/06 01:45:40;;;;;;;29.43;21.17;;;15.60;99.90;;;;;;5064018;28;20176;-86
2022/06/06 01:48:18;;;;;;;27.90;21.13;;;15.70;99.90;;;;;;5070766;28;20219;-85
2022/06/06 01:50:44;;;;;;;26.73;21.60;;;15.70;99.90;;;;;;5066080;28;20173;-86
2022/06/06 01:53:20;;;;;;;25.90;20.20;;;15.60;99.90;;;;;;5058977;28;20603;-85
2022/06/06 01:55:54;;;;;;;25.53;20.10;;;15.60;99.90;;;;;;5059166;28;20185;-86
2022/06/06 01:58:31;;;;;;;26.23;18.83;;;15.50;99.90;;;;;;5063989;28;20197;-87
2022/06/06 02:01:01;;;;;;;24.27;20.17;;;15.60;99.90;;;;;;5065513;28;20175;-87
2022/06/06 02:03:49;;;;;;;23.83;18.93;;;15.60;99.90;;;;;;5068984;28;20181;-85
2022/06/06 02:06:15;;;;;;;23.93;17.63;;;15.50;99.90;;;;;;5057339;28;20207;-84
2022/06/06 02:08:43;;;;;;;22.67;17.57;;;15.40;99.90;;;;;;5079725;28;20175;-86
2022/06/06 02:11:11;;;;;;;23.07;17.63;;;15.40;99.90;;;;;;5053030;28;20188;-87
2022/06/06 02:13:37;;;;;;;24.10;17.80;;;15.40;99.90;;;;;;5061815;28;20173;-87
2022/06/06 02:16:03;;;;;;;25.30;18.60;;;15.40;99.90;;;;;;5060810;28;20546;-87
2022/06/06 02:18:33;;;;;;;23.20;17.73;;;15.40;99.90;;;;;;5045075;28;20177;-87
2022/06/06 02:21:07;;;;;;;24.40;17.63;;;15.40;99.90;;;;;;5061022;28;20195;-86
2022/06/06 02:23:35;;;;;;;23.00;17.63;;;15.40;99.90;;;;;;5061073;28;20236;-86
2022/06/06 02:26:01;;;;;;;21.63;16.13;;;15.30;99.90;;;;;;5078276;28;20189;-86
2022/06/06 02:28:48;;;;;;;24.40;18.30;;;15.30;99.90;;;;;;5077136;28;20169;-86
2022/06/06 02:31:14;;;;;;;23.87;17.20;;;15.20;99.90;;;;;;5079603;28;20189;-87
2022/06/06 02:33:41;;;;;;;21.17;17.83;;;15.20;99.90;;;;;;5078051;28;20200;-86
2022/06/06 02:36:11;;;;;;;21.93;17.53;;;15.10;99.90;;;;;;5077179;28;20212;-85
2022/06/06 02:38:57;;;;;;;21.30;15.87;;;15.20;99.90;;;;;;5076940;28;20257;-85
2022/06/06 02:41:28;;;;;;;22.20;15.40;;;15.20;99.90;;;;;;5063484;28;20184;-85
2022/06/06 02:43:58;;;;;;;21.67;14.80;;;15.10;99.90;;;;;;5077147;28;20177;-86
2022/06/06 02:46:31;;;;;;;20.63;14.83;;;15.00;99.90;;;;;;5063222;28;20280;-86
2022/06/06 02:48:58;;;;;;;21.53;15.10;;;14.90;99.90;;;;;;5077410;28;20199;-87
2022/06/06 02:51:25;;;;;;;21.57;15.20;;;14.80;99.90;;;;;;5074903;28;20219;-89
2022/06/06 02:53:51;;;;;;;20.87;14.67;;;14.80;99.90;;;;;;5077593;28;20192;-86
2022/06/06 02:56:17;;;;;;;20.27;14.60;;;14.80;99.90;;;;;;5044607;28;20364;-88
2022/06/06 02:58:44;;;;;;;18.40;14.90;;;14.70;99.90;;;;;;5059720;28;20199;-86
2022/06/06 03:01:11;;;;;;;25.00;15.93;;;14.70;99.90;;;;;;5077659;28;20184;-87
2022/06/06 03:03:40;;;;;;;20.70;15.67;;;14.70;99.90;;;;;;5062126;28;20193;-85
2022/06/06 03:06:05;;;;;;;21.93;15.03;;;14.80;99.90;;;;;;5062010;28;20207;-88
2022/06/06 03:08:54;;;;;;;17.73;13.77;;;14.60;99.90;;;;;;5076773;28;20169;-87
2022/06/06 03:11:39;;;;;;;17.77;12.87;;;14.50;99.90;;;;;;5077384;28;20164;-86
2022/06/06 03:14:37;;;;;;;19.47;13.03;;;14.40;99.90;;;;;;5078830;28;20178;-88
2022/06/06 03:20:51;;;;;;;16.67;13.10;;;14.40;99.90;;;;;;5078127;28;20182;-84
2022/06/06 03:23:25;;;;;;;19.17;11.97;;;14.30;99.90;;;;;;5074383;28;20196;-87
2022/06/06 03:26:13;;;;;;;17.07;12.93;;;14.30;99.90;;;;;;5077570;28;20204;-85
2022/06/06 03:28:51;;;;;;;17.97;12.70;;;14.30;99.90;;;;;;5069963;28;20165;-85
2022/06/06 03:31:38;;;;;;;19.50;12.17;;;14.30;99.90;;;;;;5060414;28;20216;-88
2022/06/06 03:34:33;;;;;;;16.07;11.07;;;14.30;99.90;;;;;;5076038;28;20226;-85
2022/06/06 03:37:26;;;;;;;13.20;10.33;;;14.20;99.90;;;;;;5076623;28;20174;-86
2022/06/06 03:40:21;;;;;;;15.80;10.50;;;14.20;99.90;;;;;;5078479;28;20180;-86
2022/06/06 03:43:14;;;;;;;15.73;10.33;;;14.20;99.90;;;;;;5077957;28;20176;-87
2022/06/06 03:46:16;;;;;;;14.03;10.37;;;14.20;99.90;;;;;;5078025;28;20178;-89
2022/06/06 03:49:07;;;;;;;13.83;9.23;;;14.40;99.90;;;;;;5077008;28;20164;-86
2022/06/06 03:52:01;;;;;;;13.63;9.70;;;14.30;99.90;;;;;;5078263;28;20160;-85
2022/06/06 03:54:30;;;;;;;11.47;9.37;;;14.50;99.90;;;;;;5078679;28;20193;-86
2022/06/06 03:57:24;;;;;;;11.63;8.10;;;14.30;99.90;;;;;;5077424;28;20164;-86
2022/06/06 04:00:01;;;;;;;11.00;8.47;;;14.30;99.90;;;;;;5069206;28;20651;-86
2022/06/06 04:02:33;;;;;;;11.53;8.03;;;14.40;99.90;;;;;;5071372;28;20181;-86
2022/06/06 04:05:22;;;;;;;11.13;7.60;;;14.40;99.90;;;;;;5069136;28;20175;-85
2022/06/06 04:07:52;;;;;;;9.33;6.47;;;14.50;99.90;;;;;;5077209;28;20231;-85
2022/06/06 04:10:32;;;;;;;10.80;6.90;;;14.50;99.90;;;;;;5075584;28;20195;-85
2022/06/06 04:13:06;;;;;;;8.30;6.40;;;14.30;99.90;;;;;;5060772;28;20178;-87
2022/06/06 04:15:50;;;;;;;8.80;6.63;;;14.30;99.90;;;;;;5073368;28;20175;-92
2022/06/06 04:18:51;;;;;;;9.13;5.50;;;14.30;99.90;;;;;;5063708;28;20176;-85
2022/06/06 04:21:16;;;;;;;8.43;5.60;;;14.30;99.90;;;;;;5069382;28;20170;-84
2022/06/06 04:23:58;;;;;;;7.63;5.73;;;14.30;99.90;;;;;;5073562;28;20187;-85
2022/06/06 04:26:46;;;;;;;7.43;4.83;;;14.50;99.90;;;;;;5071460;28;20218;-85
2022/06/06 04:30:00;;;;;;;6.70;4.90;;;14.60;99.90;;;;;;5071855;28;20247;-85
2022/06/06 04:32:55;;;;;;;7.23;4.83;;;14.60;99.90;;;;;;5072839;28;20198;-85
2022/06/06 04:35:41;;;;;;;6.90;4.27;;;14.60;99.90;;;;;;5075317;28;20213;-84
2022/06/06 04:38:33;;;;;;;8.13;4.87;;;14.60;99.90;;;;;;5074882;28;20178;-85
2022/06/06 04:41:54;;;;;;;6.63;4.60;;;14.60;99.90;;;;;;5057708;28;20206;-86
2022/06/06 04:45:01;;;;;;;6.17;4.20;;;14.60;99.90;;;;;;5073212;28;20180;-92
2022/06/06 04:47:50;;;;;;;7.27;4.47;;;14.50;99.90;;;;;;5066229;28;20216;-88
2022/06/06 04:50:19;;;;;;;7.70;4.23;;;14.60;99.90;;;;;;5073783;28;20164;-86
2022/06/06 04:52:52;;;;;;;5.63;3.77;;;14.60;99.90;;;;;;5074631;28;20191;-85
2022/06/06 04:55:33;;;;;;;6.87;4.13;;;14.60;99.90;;;;;;5077357;28;20164;-83
2022/06/06 04:58:18;;;;;;;7.33;4.17;;;14.70;99.90;;;;;;5075798;28;20168;-85
2022/06/06 05:00:45;;;;;;;5.43;3.63;;;14.70;99.90;;;;;;5074867;28;20235;-88
2022/06/06 05:03:13;;;;;;;6.50;3.53;;;14.60;99.90;;;;;;5058141;28;20180;-86
2022/06/06 05:06:05;;;;;;;5.07;3.70;;;14.50;99.90;;;;;;5058986;28;20177;-85
2022/06/06 05:08:59;;;;;;;6.33;3.63;;;14.60;99.90;;;;;;5074737;28;20193;-86
2022/06/06 05:11:54;;;;;;;6.47;4.50;;;14.60;99.90;;;;;;5080453;28;20251;-86
2022/06/06 05:15:07;;;;;;;5.93;4.23;;;14.70;99.70;;;;;;5076625;28;20168;-87
2022/06/06 05:18:03;;;;;;;6.13;4.00;;;14.50;99.90;;;;;;5076965;28;20192;-87
2022/06/06 05:20:51;;;;;;;5.30;4.17;;;14.60;99.50;;;;;;5079276;28;20190;-86
2022/06/06 05:23:35;;;;;;;6.80;3.80;;;14.50;99.90;;;;;;5077157;28;20192;-84
2022/06/06 05:26:51;;;;;;;7.47;4.20;;;14.40;99.90;;;;;;5076503;28;20190;-86
2022/06/06 05:29:52;;;;;;;6.87;4.23;;;14.50;99.90;;;;;;5077546;28;20241;-83
2022/06/06 05:32:55;;;;;;;5.47;4.30;;;14.60;99.90;;;;;;5077438;28;20208;-92
2022/06/06 05:35:53;;;;;;;5.77;4.00;;;14.60;99.90;;;;;;5067667;28;20215;-84
2022/06/06 05:38:44;;;;;;;7.60;4.30;;;14.70;99.80;;;;;;5061238;28;20171;-84
2022/06/06 05:42:02;;;;;;;6.30;3.73;;;14.80;99.10;;;;;;5061604;28;20582;-86
2022/06/06 05:44:46;;;;;;;6.10;4.13;;;14.90;97.30;;;;;;5061333;28;20171;-86
2022/06/06 05:47:52;;;;;;;6.77;4.40;;;14.90;98.10;;;;;;5062212;28;20228;-87
2022/06/06 05:54:05;;;;;;;5.27;3.53;;;14.90;97.80;;;;;;5061380;28;20251;-85
2022/06/06 05:56:37;;;;;;;7.33;4.07;;;15.10;96.50;;;;;;5067621;28;20177;-85
2022/06/06 05:59:42;;;;;;;6.17;4.20;;;15.20;96.40;;;;;;5065185;28;20729;-84
2022/06/06 06:02:30;;;;;;;8.47;4.00;;;15.10;96.50;;;;;;5058959;28;20179;-85
2022/06/06 06:05:34;;;;;;;6.13;3.77;;;15.10;97.00;;;;;;5057950;28;20167;-86
2022/06/06 06:08:24;;;;;;;10.20;3.63;;;15.30;95.10;;;;;;5058674;28;20631;-85
2022/06/06 06:11:04;;;;;;;5.77;3.60;;;15.40;95.60;;;;;;5067442;28;20180;-85
2022/06/06 06:14:33;;;;;;;5.43;3.70;;;15.30;94.80;;;;;;5078440;28;20165;-87
2022/06/06 06:17:07;;;;;;;3.80;2.90;;;15.40;94.10;;;;;;5079129;28;20188;-84
2022/06/06 06:20:09;;;;;;;5.07;3.73;;;15.50;93.00;;;;;;5079595;28;20274;-84
2022/06/06 06:23:20;;;;;;;6.10;4.13;;;15.50;92.90;;;;;;5079468;28;20188;-85
2022/06/06 06:26:16;;;;;;;4.53;3.53;;;15.70;91.70;;;;;;5079666;28;20254;-85
2022/06/06 06:29:05;;;;;;;6.30;3.20;;;15.70;91.90;;;;;;5078715;28;20188;-85
2022/06/06 06:32:19;;;;;;;7.80;3.50;;;15.80;91.50;;;;;;5079348;28;20552;-86
2022/06/06 06:35:23;;;;;;;5.73;3.33;;;15.90;91.60;;;;;;5092374;28;20241;-86
2022/06/06 06:38:30;;;;;;;8.13;3.20;;;15.90;90.40;;;;;;5076453;28;20171;-87
2022/06/06 06:41:23;;;;;;;5.10;3.10;;;15.80;90.40;;;;;;5076132;28;20176;-85
2022/06/06 06:44:07;;;;;;;6.03;3.40;;;15.90;90.70;;;;;;5073327;28;20200;-92
2022/06/06 06:46:47;;;;;;;6.00;3.60;;;15.90;90.30;;;;;;5067498;28;20204;-89
2022/06/06 06:49:28;;;;;;;5.63;3.53;;;16.10;90.00;;;;;;5064382;28;20242;-92
2022/06/06 06:52:21;;;;;;;6.50;3.30;;;16.30;86.50;;;;;;5066457;28;20161;-96
2022/06/06 06:55:24;;;;;;;5.43;3.47;;;16.30;86.90;;;;;;5069509;28;20173;-91
2022/06/06 06:58:30;;;;;;;6.73;4.17;;;16.30;87.60;;;;;;5068472;28;20176;-93
2022/06/06 07:01:30;;;;;;;7.13;3.80;;;16.30;88.80;;;;;;5073121;28;20172;-88
2022/06/06 07:11:09;;;;;;;8.97;5.23;;;16.40;90.40;;;;;;5076921;28;20192;-88
2022/06/06 07:13:44;;;;;;;5.93;4.63;;;16.40;91.50;;;;;;5084778;28;20181;-92
2022/06/06 07:16:23;;;;;;;7.30;4.40;;;16.40;91.90;;;;;;5072940;28;20211;-93
2022/06/06 07:19:15;;;;;;;7.53;4.67;;;16.40;92.60;;;;;;5087299;28;20170;-89
2022/06/06 07:21:52;;;;;;;6.47;4.63;;;16.40;92.50;;;;;;5079293;28;20176;-88
2022/06/06 07:24:21;;;;;;;5.77;4.30;;;16.40;92.70;;;;;;5076602;28;20179;-93
2022/06/06 07:26:51;;;;;;;8.50;4.40;;;16.30;93.10;;;;;;5065754;28;20211;-92
2022/06/06 07:29:21;;;;;;;5.60;4.63;;;16.40;92.60;;;;;;5082166;28;20717;-88
2022/06/06 07:32:05;;;;;;;6.20;4.03;;;16.50;91.30;;;;;;5078898;28;20227;-89
2022/06/06 07:35:08;;;;;;;4.70;3.50;;;16.60;92.30;;;;;;5096870;28;20241;-88
2022/06/06 07:38:01;;;;;;;7.57;3.27;;;16.80;90.10;;;;;;5095337;28;20200;-90
2022/06/06 07:40:40;;;;;;;5.23;2.70;;;16.90;79.00;;;;;;5098433;28;20156;-90
2022/06/06 07:43:12;;;;;;;4.93;3.13;;;16.90;71.60;;;;;;5094552;28;20175;-91
2022/06/06 07:45:47;;;;;;;5.67;2.90;;;16.70;79.00;;;;;;5089141;28;20164;-92
2022/06/06 07:48:21;;;;;;;5.77;2.90;;;16.60;80.40;;;;;;5080581;28;20231;-94
2022/06/06 07:51:03;;;;;;;4.60;3.00;;;16.50;77.50;;;;;;5086180;28;20160;-94
2022/06/06 07:53:58;;;;;;;4.17;2.67;;;16.60;77.00;;;;;;5076950;28;20612;-91
2022/06/06 07:56:29;;;;;;;3.80;2.73;;;16.70;75.60;;;;;;5077416;28;20532;-89
2022/06/06 07:59:23;;;;;;;4.60;2.60;;;16.80;70.60;;;;;;5077092;28;20282;-88
2022/06/06 08:02:31;;;;;;;3.60;2.23;;;16.90;71.70;;;;;;5083807;28;20185;-90
2022/06/06 08:05:03;;;;;;;3.40;2.50;;;16.90;66.90;;;;;;5058029;28;20231;-91
2022/06/06 08:07:58;;;;;;;4.70;2.80;;;17.00;69.40;;;;;;5068544;28;20263;-90
2022/06/06 08:10:29;;;;;;;4.03;2.60;;;16.90;64.50;;;;;;5076486;28;20177;-86
2022/06/06 08:13:19;;;;;;;4.77;2.60;;;17.00;64.00;;;;;;5082840;28;20180;-90
2022/06/06 08:15:57;;;;;;;7.33;2.80;;;16.90;64.00;;;;;;5087755;28;20180;-90
2022/06/06 08:18:56;;;;;;;3.17;1.90;;;17.00;64.10;;;;;;5082422;28;20183;-94
2022/06/06 08:21:37;;;;;;;4.97;2.00;;;17.30;57.30;;;;;;5077069;28;20180;-91
2022/06/06 08:24:09;;;;;;;3.30;1.90;;;17.30;55.70;;;;;;5078717;28;20265;-89
2022/06/06 08:26:38;;;;;;;4.43;2.20;;;17.30;56.00;;;;;;5075783;28;20207;-93
2022/06/06 08:29:09;;;;;;;3.83;2.10;;;17.40;56.60;;;;;;5076769;28;20222;-92
2022/06/06 08:31:36;;;;;;;5.00;2.10;;;17.40;54.10;;;;;;5069113;28;20196;-91
2022/06/06 08:34:04;;;;;;;5.17;2.20;;;17.60;52.80;;;;;;5080215;28;20195;-89
2022/06/06 08:36:45;;;;;;;2.60;1.90;;;17.70;48.50;;;;;;5078001;28;20180;-90
2022/06/06 08:39:34;;;;;;;5.43;2.10;;;17.90;46.60;;;;;;5083740;28;20181;-90
2022/06/06 08:42:21;;;;;;;4.30;1.97;;;17.90;45.80;;;;;;5061903;28;20176;-89
2022/06/06 08:45:18;;;;;;;3.30;1.60;;;17.70;43.10;;;;;;5058690;28;20172;-88
2022/06/06 08:47:47;;;;;;;2.87;1.73;;;17.60;37.40;;;;;;5055493;28;20213;-93
2022/06/06 08:50:46;;;;;;;3.27;1.80;;;17.40;28.70;;;;;;5060924;28;20177;-86
2022/06/06 08:53:43;;;;;;;3.47;2.00;;;17.60;30.90;;;;;;5067155;28;20271;-93
2022/06/06 08:56:31;;;;;;;3.43;1.87;;;17.90;24.80;;;;;;5058676;28;20208;-91
2022/06/06 08:59:21;;;;;;;4.47;2.10;;;18.10;3.80;;;;;;5055152;28;20175;-90
2022/06/06 09:02:02;;;;;;;4.57;1.50;;;18.10;4.40;;;;;;5055918;28;20180;-92
2022/06/06 09:04:40;;;;;;;5.10;1.63;;;18.20;1.00;;;;;;5068754;28;20644;-92
2022/06/06 09:07:34;;;;;;;4.77;1.80;;;18.00;1.00;;;;;;5074782;28;20205;-93
2022/06/06 09:10:18;;;;;;;2.60;1.47;;;17.70;1.00;;;;;;5076567;28;20181;-88
2022/06/06 09:12:57;;;;;;;3.33;1.80;;;17.50;1.00;;;;;;5063134;28;20175;-94
2022/06/06 09:15:43;;;;;;;3.80;1.63;;;17.40;7.20;;;;;;5059308;28;20176;-92
2022/06/06 09:18:35;;;;;;;3.17;1.80;;;17.40;12.00;;;;;;5056752;28;20207;-93
2022/06/06 09:21:04;;;;;;;3.57;1.30;;;17.60;10.90;;;;;;5065635;28;20257;-91
2022/06/06 09:23:36;;;;;;;2.97;1.67;;;17.60;1.00;;;;;;5079434;28;20200;-89
2022/06/06 09:26:24;;;;;;;3.40;1.50;;;17.70;1.00;;;;;;5081070;28;20210;-90
2022/06/06 09:29:28;;;;;;;1.80;1.40;;;17.40;9.50;;;;;;5077548;28;20184;-93
2022/06/06 09:32:25;;;;;;;2.20;1.40;;;17.40;10.40;;;;;;5070426;28;20188;-92
2022/06/06 09:35:26;;;;;;;3.13;1.70;;;17.40;12.30;;;;;;5057567;28;20173;-90
2022/06/06 09:38:15;;;;;;;2.23;1.70;;;17.40;16.10;;;;;;5066655;28;20199;-89
2022/06/06 09:40:57;;;;;;;5.83;1.70;;;17.50;18.00;;;;;;5065556;28;20210;-94
2022/06/06 09:43:44;;;;;;;4.30;1.67;;;17.70;12.10;;;;;;5059560;28;20272;-91
2022/06/06 09:46:20;;;;;;;3.07;1.60;;;18.00;11.40;;;;;;5059368;28;20183;-94
2022/06/06 09:49:04;;;;;;;3.37;1.40;;;18.30;1.00;;;;;;5073871;28;20582;-94
2022/06/06 09:52:23;;;;;;;2.10;1.10;;;18.40;1.00;;;;;;5073844;28;20217;-94
2022/06/06 10:01:15;;;;;;;3.47;1.57;;;18.30;1.00;;;;;;5058625;28;20198;-96
2022/06/06 10:04:12;;;;;;;3.47;1.60;;;18.40;1.00;;;;;;5064355;28;20177;-96
2022/06/06 10:07:03;;;;;;;4.77;1.57;;;18.40;1.00;;;;;;5076293;28;20177;-89
2022/06/06 10:10:00;;;;;;;2.63;1.30;;;18.00;1.00;;;;;;5077474;28;20192;-89
2022/06/06 10:12:39;;;;;;;3.90;1.50;;;18.10;1.00;;;;;;5076295;28;20194;-93
2022/06/06 10:15:15;;;;;;;4.10;1.77;;;18.30;1.00;;;;;;5092342;28;20187;-93
2022/06/06 10:18:06;;;;;;;2.67;1.17;;;18.50;1.00;;;;;;5080469;28;20175;-93
2022/06/06 10:20:59;;;;;;;2.57;1.10;;;18.80;1.00;;;;;;5077199;28;20178;-90
2022/06/06 10:23:38;;;;;;;3.10;1.03;;;18.90;1.00;;;;;;5076463;28;20201;-87
2022/06/06 10:26:45;;;;;;;3.33;1.20;;;18.80;1.00;;;;;;5082364;28;20175;-90
2022/06/06 10:29:20;;;;;;;5.57;1.30;;;18.80;1.00;;;;;;5099618;28;20216;-86
2022/06/06 10:32:04;;;;;;;4.73;1.20;;;18.70;1.00;;;;;;5087075;28;20197;-88
2022/06/06 10:35:02;;;;;;;2.67;1.07;;;18.90;1.00;;;;;;5072065;28;20171;-95
2022/06/06 10:37:54;;;;;;;4.57;1.00;;;19.00;1.00;;;;;;5068710;28;20169;-92
2022/06/06 10:40:43;;;;;;;3.10;1.40;;;18.90;1.00;;;;;;5069936;28;20194;-89
2022/06/06 10:44:00;;;;;;;3.70;1.00;;;18.70;1.00;;;;;;5080939;28;20199;-93
2022/06/06 10:46:49;;;;;;;2.90;1.03;;;18.60;1.00;;;;;;5086733;28;20177;-89
2022/06/06 10:49:33;;;;;;;1.80;0.90;;;18.60;1.00;;;;;;5079958;28;20275;-92
2022/06/06 10:52:23;;;;;;;2.63;1.30;;;18.40;1.00;;;;;;5082291;28;20280;-87
2022/06/06 10:54:58;;;;;;;2.57;0.97;;;18.10;1.00;;;;;;5096130;28;20274;-87
2022/06/06 10:58:12;;;;;;;3.50;1.10;;;18.10;1.00;;;;;;5093704;28;20232;-89
2022/06/06 11:00:49;;;;;;;3.07;1.10;;;18.20;1.00;;;;;;5055217;28;20188;-89
2022/06/06 11:03:30;;;;;;;3.80;1.10;;;18.30;1.00;;;;;;5063145;28;20169;-92
2022/06/06 11:06:31;;;;;;;2.33;1.20;;;18.50;1.00;;;;;;5067986;28;20708;-94
2022/06/06 11:09:31;;;;;;;3.30;0.97;;;18.50;1.00;;;;;;5085537;28;20190;-90
2022/06/06 11:12:21;;;;;;;4.77;1.23;;;18.80;1.00;;;;;;5093198;28;20188;-87
2022/06/06 11:14:47;;;;;;;2.10;0.80;;;19.00;1.00;;;;;;5088151;28;20205;-91
2022/06/06 11:18:00;;;;;;;3.00;1.00;;;18.90;1.00;;;;;;5049115;28;20187;-88
2022/06/06 11:20:25;;;;;;;2.30;0.90;;;19.00;1.00;;;;;;5074682;28;20200;-94
2022/06/06 11:23:16;;;;;;;4.03;0.90;;;19.20;1.00;;;;;;5056479;28;20328;-93
2022/06/06 11:26:08;;;;;;;1.90;1.00;;;19.20;1.00;;;;;;5057816;28;20176;-91
2022/06/06 11:29:34;;;;;;;1.87;0.90;;;19.00;1.00;;;;;;5057054;28;20260;-91
2022/06/06 11:32:11;;;;;;;2.77;0.90;;;19.10;1.00;;;;;;5071594;28;20196;-91
2022/06/06 11:35:12;;;;;;;2.57;1.10;;;18.90;1.00;;;;;;5060829;28;20647;-92
2022/06/06 11:38:11;;;;;;;2.23;1.00;;;18.70;1.00;;;;;;5059844;28;20181;-93
2022/06/06 11:41:15;;;;;;;2.53;1.10;;;18.60;1.00;;;;;;5045162;28;20173;-95
2022/06/06 11:44:09;;;;;;;1.57;0.80;;;18.60;1.00;;;;;;5074093;28;20168;-93
2022/06/06 11:47:03;;;;;;;2.50;0.90;;;18.60;1.00;;;;;;5064979;28;20208;-96
2022/06/06 11:49:48;;;;;;;3.50;1.10;;;18.70;1.00;;;;;;5067303;28;20712;-94
2022/06/06 11:52:51;;;;;;;4.73;1.30;;;18.80;1.00;;;;;;5076031;28;20283;-95
2022/06/06 11:55:53;;;;;;;3.43;1.20;;;18.80;1.00;;;;;;5077581;28;20175;-95
2022/06/06 11:58:25;;;;;;;5.70;1.03;;;18.90;1.00;;;;;;5085290;28;20246;-91
2022/06/06 12:01:21;;;;;;;3.13;1.07;;;18.90;1.00;;;;;;5097301;28;20225;-92
2022/06/06 12:04:24;;;;;;;3.77;1.47;;;18.90;1.00;;;;;;5092582;28;20183;-94
2022/06/06 12:07:27;;;;;;;3.80;1.00;;;19.00;1.00;;;;;;5077508;28;20196;-92
2022/06/06 12:10:13;;;;;;;3.27;1.10;;;19.00;1.00;;;;;;5067898;28;20178;-95
2022/06/06 12:13:04;;;;;;;1.93;1.07;;;19.10;1.00;;;;;;5070709;28;20188;-91
2022/06/06 12:15:55;;;;;;;5.10;1.17;;;19.00;1.00;;;;;;5055459;28;20203;-93
2022/06/06 12:18:24;;;;;;;3.37;1.10;;;19.10;1.00;;;;;;5056755;28;20170;-94
2022/06/06 12:21:04;;;;;;;2.57;1.00;;;19.00;1.00;;;;;;5055504;28;20238;-94
2022/06/06 12:23:49;;;;;;;2.97;1.03;;;19.10;1.00;;;;;;5056101;28;20279;-93
2022/06/06 12:26:42;;;;;;;1.70;0.93;;;19.20;1.00;;;;;;5076505;28;20657;-94
2022/06/06 12:29:29;;;;;;;2.00;1.00;;;19.30;1.00;;;;;;5078827;28;20314;-95
2022/06/06 12:32:15;;;;;;;2.63;1.20;;;19.10;1.00;;;;;;5076583;28;20274;-92
2022/06/06 12:34:47;;;;;;;4.67;1.50;;;19.20;1.00;;;;;;5074338;28;20267;-93
2022/06/06 12:37:28;;;;;;;5.97;1.50;;;19.10;1.00;;;;;;5058632;28;20169;-91
2022/06/06 12:40:14;;;;;;;3.60;1.30;;;19.00;1.00;;;;;;5085922;28;20176;-92
2022/06/06 12:42:45;;;;;;;3.67;1.17;;;18.90;1.00;;;;;;5079385;28;20224;-90
2022/06/06 12:45:23;;;;;;;3.37;1.00;;;19.00;1.00;;;;;;5080961;28;20186;-91
2022/06/06 12:48:20;;;;;;;4.67;1.00;;;19.00;1.00;;;;;;5077936;28;20208;-91
2022/06/06 12:51:32;;;;;;;2.50;1.10;;;18.90;1.00;;;;;;5086278;28;20165;-93
2022/06/06 12:54:11;;;;;;;3.30;1.50;;;19.00;1.00;;;;;;5079327;28;20735;-90
2022/06/06 12:56:57;;;;;;;3.17;1.00;;;19.20;1.00;;;;;;5068649;28;20170;-89
2022/06/06 12:59:25;;;;;;;2.67;1.40;;;19.40;1.00;;;;;;5065993;28;20177;-89
2022/06/06 13:02:15;;;;;;;4.47;1.07;;;19.50;1.00;;;;;;5062267;28;20185;-91
2022/06/06 13:04:58;;;;;;;3.30;1.20;;;19.60;1.00;;;;;;5072542;28;20260;-94
2022/06/06 13:07:35;;;;;;;2.23;1.00;;;19.60;1.00;;;;;;5075515;28;20204;-91
2022/06/06 13:10:29;;;;;;;3.07;1.20;;;19.80;1.00;;;;;;5074918;28;20160;-93
2022/06/06 13:13:13;;;;;;;3.50;1.07;;;19.70;1.00;;;;;;5056902;28;20637;-91
2022/06/06 13:15:51;;;;;;;3.00;1.27;;;19.80;1.00;;;;;;5057953;28;20185;-93
2022/06/06 13:18:21;;;;;;;3.37;1.40;;;19.60;1.00;;;;;;5080304;28;20220;-85
2022/06/06 13:21:10;;;;;;;2.27;1.30;;;19.50;1.00;;;;;;5078091;28;20195;-87
2022/06/06 13:24:09;;;;;;;2.00;0.93;;;19.30;1.00;;;;;;5079063;28;20199;-94
2022/06/06 13:26:47;;;;;;;3.03;1.10;;;19.20;1.00;;;;;;5059837;28;20187;-91
2022/06/06 13:29:35;;;;;;;4.53;1.83;;;19.20;1.00;;;;;;5068398;28;20180;-87
2022/06/06 13:32:26;;;;;;;4.43;1.20;;;19.40;1.00;;;;;;5068906;28;20184;-90
2022/06/06 13:35:18;;;;;;;3.93;1.20;;;19.60;1.00;;;;;;5067695;28;20226;-87
2022/06/06 13:38:09;;;;;;;3.90;1.40;;;19.70;1.00;;;;;;5069603;28;20169;-89
2022/06/06 13:40:48;;;;;;;3.47;1.10;;;19.90;1.00;;;;;;5069456;28;20171;-90
2022/06/06 13:43:50;;;;;;;3.30;1.10;;;19.80;1.00;;;;;;5070092;28;20511;-87
2022/06/06 13:46:45;;;;;;;4.27;1.30;;;19.60;1.00;;;;;;5067682;28;20191;-89
2022/06/06 13:49:39;;;;;;;3.30;1.30;;;19.60;1.00;;;;;;5066845;28;20199;-88
2022/06/06 13:52:23;;;;;;;3.43;1.30;;;19.60;1.00;;;;;;5074079;28;20205;-85
2022/06/06 13:54:48;;;;;;;6.37;1.37;;;19.50;1.00;;;;;;5069526;28;20701;-87
2022/06/06 13:57:31;;;;;;;1.70;1.00;;;19.60;1.00;;;;;;5070933;28;20181;-89
2022/06/06 14:00:13;;;;;;;5.03;1.10;;;19.80;1.00;;;;;;5070531;28;20609;-87
2022/06/06 14:02:58;;;;;;;3.93;1.20;;;19.80;1.00;;;;;;5072674;28;20180;-88
2022/06/06 14:06:01;;;;;;;3.23;1.10;;;19.80;1.00;;;;;;5072627;28;20192;-87
2022/06/06 14:08:55;;;;;;;3.57;1.00;;;19.90;1.00;;;;;;5070229;28;20250;-88
2022/06/06 14:11:56;;;;;;;2.47;0.90;;;19.80;1.00;;;;;;5074391;28;20269;-87
2022/06/06 14:14:24;;;;;;;4.00;1.00;;;19.90;1.00;;;;;;5074274;28;20177;-88
2022/06/06 14:17:04;;;;;;;2.30;1.00;;;19.80;1.00;;;;;;5076149;28;20178;-89
2022/06/06 14:20:04;;;;;;;4.33;1.13;;;19.60;1.00;;;;;;5069766;28;20189;-87
2022/06/06 14:22:33;;;;;;;2.73;1.13;;;19.80;1.00;;;;;;5072646;28;20651;-87
2022/06/06 14:25:01;;;;;;;3.27;0.93;;;19.90;1.00;;;;;;5076576;28;20178;-92
2022/06/06 14:27:28;;;;;;;2.57;1.23;;;19.80;1.00;;;;;;5080417;28;20197;-87
2022/06/06 14:30:05;;;;;;;5.33;1.03;;;19.80;1.00;;;;;;5074229;28;20170;-86
2022/06/06 14:32:55;;;;;;;2.03;1.17;;;19.70;1.00;;;;;;5056136;28;20201;-88
2022/06/06 14:35:37;;;;;;;1.70;0.80;;;19.80;1.00;;;;;;5073302;28;20172;-88
2022/06/06 14:38:11;;;;;;;9.17;1.20;;;19.80;1.00;;;;;;5073732;28;20295;-95
2022/06/06 14:40:51;;;;;;;4.13;1.20;;;19.60;1.00;;;;;;5075716;28;20179;-93
2022/06/06 14:43:18;;;;;;;4.27;1.20;;;19.80;1.00;;;;;;5073522;28;20213;-94